createdAt,value
2023-04-17T00:01:15.929Z,24.15
2023-04-17T00:03:44.813Z,23.38
2023-04-17T00:06:16.388Z,24.52
2023-04-17T00:08:44.611Z,24.70
2023-04-17T00:11:12.683Z,23.15
2023-04-17T00:13:40.955Z,25.40
2023-04-17T00:16:10.723Z,23.23
2023-04-17T00:18:38.830Z,21.73
2023-04-17T00:21:07.765Z,21.23
2023-04-17T00:23:37.224Z,22.45
2023-04-17T00:26:05.314Z,22.55
2023-04-17T00:28:33.924Z,23.75
2023-04-17T00:31:01.970Z,24.90
2023-04-17T00:33:29.980Z,23.63
2023-04-17T00:35:58.053Z,22.50
2023-04-17T00:38:26.147Z,22.85
2023-04-17T00:40:55.765Z,23.17
2023-04-17T00:43:23.792Z,23.08
2023-04-17T00:45:52.621Z,22.55
2023-04-17T00:48:24.154Z,22.52
2023-04-17T00:50:52.511Z,23.77
2023-04-17T00:53:20.888Z,23.38
2023-04-17T00:55:51.765Z,26.40
2023-04-17T00:58:21.256Z,23.02
2023-04-17T01:00:50.710Z,25.25
2023-04-17T01:03:19.040Z,25.20
2023-04-17T01:05:51.099Z,23.05
2023-04-17T01:08:19.517Z,23.83
2023-04-17T01:10:48.150Z,24.42
2023-04-17T01:13:16.185Z,25.58
2023-04-17T01:15:47.066Z,23.70
2023-04-17T01:18:15.208Z,24.42
2023-04-17T01:20:43.307Z,25.55
2023-04-17T01:23:11.607Z,25.05
2023-04-17T01:25:42.308Z,25.45
2023-04-17T01:28:10.963Z,26.55
2023-04-17T01:30:39.044Z,25.20
2023-04-17T01:33:09.421Z,24.75
2023-04-17T01:35:37.829Z,25.85
2023-04-17T01:38:05.849Z,24.38
2023-04-17T01:40:34.001Z,24.40
2023-04-17T01:43:03.389Z,24.98
2023-04-17T01:45:31.430Z,24.75
2023-04-17T01:48:01.024Z,24.58
2023-04-17T01:50:29.213Z,24.58
2023-04-17T01:52:57.281Z,25.02
2023-04-17T01:55:25.406Z,24.45
2023-04-17T01:57:53.454Z,24.02
2023-04-17T02:00:23.719Z,23.17
2023-04-17T02:02:52.002Z,24.25
2023-04-17T02:05:20.923Z,24.48
2023-04-17T02:07:50.965Z,24.80
2023-04-17T02:10:20.048Z,24.00
2023-04-17T02:12:48.143Z,23.42
2023-04-17T02:15:16.429Z,25.02
2023-04-17T02:17:47.181Z,24.40
2023-04-17T02:20:15.503Z,25.25
2023-04-17T02:22:43.577Z,25.35
2023-04-17T02:25:11.755Z,24.77
2023-04-17T02:27:39.830Z,27.40
2023-04-17T02:30:09.858Z,27.13
2023-04-17T02:32:37.922Z,28.45
2023-04-17T02:35:09.488Z,28.75
2023-04-17T02:37:37.794Z,27.08
2023-04-17T02:40:08.020Z,28.45
2023-04-17T02:42:36.045Z,27.40
2023-04-17T02:45:05.297Z,26.75
2023-04-17T02:47:33.639Z,26.02
2023-04-17T02:50:02.797Z,26.45
2023-04-17T02:52:37.544Z,28.15
2023-04-17T02:55:06.945Z,28.10
2023-04-17T02:57:35.350Z,27.05
2023-04-17T03:00:07.893Z,25.63
2023-04-17T03:02:36.468Z,27.60
2023-04-17T03:05:04.833Z,27.52
2023-04-17T03:07:32.925Z,27.08
2023-04-17T03:10:02.890Z,26.42
2023-04-17T03:12:32.005Z,26.35
2023-04-17T03:15:01.332Z,27.63
2023-04-17T03:17:29.926Z,26.15
2023-04-17T03:19:58.515Z,27.50
2023-04-17T03:22:26.591Z,29.52
2023-04-17T03:24:54.695Z,28.08
2023-04-17T03:27:27.144Z,26.92
2023-04-17T03:29:56.288Z,27.60
2023-04-17T03:32:26.586Z,26.85
2023-04-17T03:34:54.610Z,27.92
2023-04-17T03:37:22.702Z,26.63
2023-04-17T03:39:50.870Z,26.48
2023-04-17T03:42:19.100Z,25.98
2023-04-17T03:44:48.580Z,25.85
2023-04-17T03:47:16.978Z,25.85
2023-04-17T03:49:45.113Z,25.13
2023-04-17T03:52:14.094Z,25.45
2023-04-17T03:54:43.186Z,25.65
2023-04-17T03:57:13.585Z,28.05
2023-04-17T03:59:41.677Z,27.45
2023-04-17T04:02:11.208Z,26.88
2023-04-17T04:04:40.817Z,28.75
2023-04-17T04:07:13.309Z,28.42
2023-04-17T04:09:41.419Z,29.50
2023-04-17T04:12:10.544Z,29.10
2023-04-17T04:14:42.197Z,27.85
2023-04-17T04:17:12.636Z,27.60
2023-04-17T04:19:42.830Z,31.85
2023-04-17T04:22:13.633Z,30.15
2023-04-17T04:24:53.727Z,30.48
2023-04-17T04:27:27.723Z,29.25
2023-04-17T04:29:58.877Z,31.42
2023-04-17T04:32:30.051Z,31.73
2023-04-17T04:34:58.499Z,32.95
2023-04-17T04:37:29.898Z,31.20
2023-04-17T04:40:10.704Z,32.03
2023-04-17T04:42:43.034Z,31.63
2023-04-17T04:45:15.574Z,31.45
2023-04-17T04:47:46.754Z,30.13
2023-04-17T04:50:14.911Z,31.98
2023-04-17T04:52:42.981Z,31.88
2023-04-17T04:55:24.508Z,32.67
2023-04-17T04:57:54.490Z,31.88
2023-04-17T05:00:24.921Z,31.55
2023-04-17T05:02:57.299Z,31.17
2023-04-17T05:05:27.125Z,31.48
2023-04-17T05:07:55.830Z,31.83
2023-04-17T05:10:27.394Z,29.83
2023-04-17T05:13:00.580Z,31.92
2023-04-17T05:15:28.677Z,32.33
2023-04-17T05:17:58.606Z,31.27
2023-04-17T05:20:29.023Z,30.70
2023-04-17T05:22:59.248Z,30.40
2023-04-17T05:25:27.308Z,30.73
2023-04-17T05:27:57.812Z,29.58
2023-04-17T05:30:25.947Z,29.85
2023-04-17T05:33:06.878Z,30.13
2023-04-17T05:35:44.132Z,29.77
2023-04-17T05:38:12.212Z,30.10
2023-04-17T05:40:40.300Z,28.70
2023-04-17T05:43:09.437Z,31.73
2023-04-17T05:45:38.361Z,30.83
2023-04-17T05:48:11.036Z,30.70
2023-04-17T05:50:39.270Z,33.22
2023-04-17T05:53:08.704Z,34.53
2023-04-17T05:55:43.519Z,32.25
2023-04-17T06:00:45.742Z,29.40
2023-04-17T06:03:18.717Z,27.52
2023-04-17T06:05:48.558Z,28.67
2023-04-17T06:08:17.268Z,29.83
2023-04-17T06:10:46.628Z,29.35
2023-04-17T06:13:14.748Z,29.17
2023-04-17T06:15:46.903Z,30.08
2023-04-17T06:18:17.879Z,28.30
2023-04-17T06:20:46.181Z,28.45
2023-04-17T06:23:14.322Z,29.30
2023-04-17T06:25:43.371Z,28.90
2023-04-17T06:28:11.449Z,29.10
2023-04-17T06:30:39.689Z,28.83
2023-04-17T06:33:08.732Z,27.77
2023-04-17T06:35:39.010Z,26.98
2023-04-17T06:38:18.122Z,28.75
2023-04-17T06:40:46.722Z,26.73
2023-04-17T06:43:16.907Z,28.42
2023-04-17T06:45:45.011Z,27.48
2023-04-17T06:48:13.039Z,26.00
2023-04-17T06:50:42.461Z,27.98
2023-04-17T06:53:10.576Z,26.95
2023-04-17T06:55:38.607Z,26.27
2023-04-17T06:58:08.854Z,26.73
2023-04-17T07:00:36.903Z,28.02
2023-04-17T07:03:05.844Z,26.15
2023-04-17T07:05:34.097Z,25.25
2023-04-17T07:08:03.551Z,25.08
2023-04-17T07:10:31.565Z,24.92
2023-04-17T07:12:59.586Z,24.38
2023-04-17T07:15:30.544Z,23.80
2023-04-17T07:17:58.707Z,24.25
2023-04-17T07:20:26.890Z,23.42
2023-04-17T07:22:55.515Z,23.75
2023-04-17T07:25:25.220Z,22.45
2023-04-17T07:27:54.591Z,23.23
2023-04-17T07:30:22.687Z,23.02
2023-04-17T07:32:50.782Z,22.50
2023-04-17T07:35:18.929Z,22.67
2023-04-17T07:37:47.092Z,22.27
2023-04-17T07:40:15.325Z,22.23
2023-04-17T07:42:44.833Z,22.80
2023-04-17T07:45:13.074Z,21.88
2023-04-17T07:47:41.145Z,21.58
2023-04-17T07:50:10.059Z,20.63
2023-04-17T07:52:38.139Z,21.15
2023-04-17T07:55:07.252Z,19.77
2023-04-17T07:57:35.493Z,21.25
2023-04-17T08:00:09.146Z,20.45
2023-04-17T08:02:42.051Z,20.38
2023-04-17T08:05:11.231Z,20.10
2023-04-17T08:07:40.182Z,20.83
2023-04-17T08:10:09.027Z,20.25
2023-04-17T08:12:37.028Z,20.13
2023-04-17T08:15:07.620Z,19.35
2023-04-17T08:17:35.888Z,18.40
2023-04-17T08:20:10.964Z,19.25
2023-04-17T08:22:42.935Z,18.52
2023-04-17T08:25:11.871Z,19.42
2023-04-17T08:27:41.438Z,18.05
2023-04-17T08:30:16.154Z,18.15
2023-04-17T08:32:47.383Z,17.77
2023-04-17T08:35:17.269Z,17.08
2023-04-17T08:37:46.887Z,16.58
2023-04-17T08:40:17.145Z,16.63
2023-04-17T08:42:47.803Z,16.33
2023-04-17T08:45:18.408Z,15.93
2023-04-17T08:47:46.595Z,16.45
2023-04-17T08:50:16.732Z,15.70
2023-04-17T08:52:46.561Z,16.08
2023-04-17T08:55:16.209Z,16.00
2023-04-17T08:57:55.630Z,16.80
2023-04-17T09:00:32.879Z,16.02
2023-04-17T09:03:03.732Z,15.98
2023-04-17T09:05:34.212Z,14.30
2023-04-17T09:08:13.445Z,15.20
2023-04-17T09:10:42.963Z,14.13
2023-04-17T09:13:14.396Z,14.45
2023-04-17T09:15:44.972Z,12.95
2023-04-17T09:18:31.767Z,13.43
2023-04-17T09:21:01.231Z,13.50
2023-04-17T09:23:30.793Z,14.00
2023-04-17T09:26:08.936Z,14.10
2023-04-17T09:28:39.566Z,13.50
2023-04-17T09:31:26.438Z,13.73
2023-04-17T09:33:59.006Z,13.73
2023-04-17T09:36:30.451Z,13.43
2023-04-17T09:38:59.507Z,12.65
2023-04-17T09:41:29.153Z,13.05
2023-04-17T09:44:01.068Z,13.25
2023-04-17T09:46:39.235Z,13.25
2023-04-17T09:49:11.920Z,12.23
2023-04-17T09:51:40.933Z,12.23
2023-04-17T09:54:11.760Z,11.90
2023-04-17T09:56:41.344Z,11.95
2023-04-17T09:59:11.303Z,11.38
2023-04-17T10:01:41.176Z,11.63
2023-04-17T10:04:09.831Z,12.15
2023-04-17T10:06:38.609Z,11.68
2023-04-17T10:09:08.165Z,11.00
2023-04-17T10:11:39.460Z,11.30
2023-04-17T10:14:15.141Z,12.38
2023-04-17T10:16:44.931Z,12.05
2023-04-17T10:19:30.429Z,11.70
2023-04-17T10:22:34.097Z,13.00
2023-04-17T10:25:23.551Z,11.48
2023-04-17T10:27:58.404Z,11.73
2023-04-17T10:30:47.170Z,11.02
2023-04-17T10:33:27.321Z,12.20
2023-04-17T10:35:55.898Z,10.77
2023-04-17T10:38:35.209Z,11.40
2023-04-17T10:41:05.185Z,11.18
2023-04-17T10:43:33.455Z,11.23
2023-04-17T10:46:06.638Z,11.63
2023-04-17T10:48:40.887Z,11.70
2023-04-17T10:51:43.833Z,10.77
2023-04-17T10:54:15.470Z,11.60
2023-04-17T10:56:46.233Z,10.63
2023-04-17T10:59:15.902Z,11.27
2023-04-17T11:02:01.143Z,12.57
2023-04-17T11:04:33.847Z,12.27
2023-04-17T11:07:02.617Z,12.75
2023-04-17T11:09:31.320Z,11.88
2023-04-17T11:12:03.084Z,12.07
2023-04-17T11:14:32.424Z,11.77
2023-04-17T11:17:02.258Z,11.20
2023-04-17T11:19:33.786Z,11.88
2023-04-17T11:22:02.913Z,11.38
2023-04-17T11:24:32.382Z,11.15
2023-04-17T11:27:03.881Z,10.95
2023-04-17T11:29:32.443Z,10.50
2023-04-17T11:32:01.465Z,11.25
2023-04-17T11:34:31.470Z,11.00
2023-04-17T11:37:04.474Z,11.35
2023-04-17T11:39:35.550Z,11.27
2023-04-17T11:42:09.477Z,10.68
2023-04-17T11:44:40.177Z,10.90
2023-04-17T11:47:12.986Z,11.70
2023-04-17T11:49:42.785Z,12.02
2023-04-17T11:52:11.916Z,10.77
2023-04-17T11:54:41.244Z,10.63
2023-04-17T11:57:14.037Z,10.77
2023-04-17T11:59:44.869Z,10.35
2023-04-17T12:02:13.529Z,10.57
2023-04-17T12:04:43.433Z,11.02
2023-04-17T12:07:24.009Z,11.32
2023-04-17T12:09:56.452Z,9.88
2023-04-17T12:12:24.757Z,10.45
2023-04-17T12:14:53.044Z,10.80
2023-04-17T12:17:21.841Z,9.60
2023-04-17T12:19:52.088Z,10.52
2023-04-17T12:22:20.949Z,10.10
2023-04-17T12:24:49.306Z,9.95
2023-04-17T12:27:17.564Z,10.30
2023-04-17T12:29:46.082Z,10.13
2023-04-17T12:32:16.069Z,9.73
2023-04-17T12:34:44.441Z,9.52
2023-04-17T12:37:14.108Z,10.43
2023-04-17T12:39:42.392Z,9.95
2023-04-17T12:42:10.680Z,9.35
2023-04-17T12:44:39.841Z,9.10
2023-04-17T12:47:08.250Z,9.15
2023-04-17T12:49:36.562Z,7.97
2023-04-17T12:52:04.988Z,8.48
2023-04-17T12:54:34.707Z,8.63
2023-04-17T12:57:03.519Z,7.53
2023-04-17T12:59:31.868Z,7.53
2023-04-17T13:02:00.236Z,7.70
2023-04-17T13:04:28.734Z,6.90
2023-04-17T13:06:57.175Z,7.05
2023-04-17T13:09:25.432Z,7.30
2023-04-17T13:11:55.069Z,6.22
2023-04-17T13:14:23.364Z,6.72
2023-04-17T13:16:51.709Z,6.63
2023-04-17T13:19:20.173Z,5.90
2023-04-17T13:21:48.599Z,6.15
2023-04-17T13:24:16.960Z,5.78
2023-04-17T13:26:45.366Z,5.93
2023-04-17T13:29:17.764Z,5.47
2023-04-17T13:31:47.526Z,5.40
2023-04-17T13:34:15.929Z,5.40
2023-04-17T13:36:45.117Z,5.82
2023-04-17T13:39:13.751Z,5.60
2023-04-17T13:41:42.251Z,6.30
2023-04-17T13:44:10.607Z,5.70
2023-04-17T13:46:40.325Z,5.57
2023-04-17T13:49:08.645Z,5.55
2023-04-17T13:51:37.004Z,5.28
2023-04-17T13:54:06.696Z,5.10
2023-04-17T13:56:35.123Z,6.57
2023-04-17T13:59:04.631Z,6.05
2023-04-17T14:01:33.096Z,6.13
2023-04-17T14:04:02.909Z,5.85
2023-04-17T14:06:33.328Z,6.15
2023-04-17T14:09:01.732Z,6.05
2023-04-17T14:11:30.214Z,5.90
2023-04-17T14:13:58.640Z,5.43
2023-04-17T14:16:27.663Z,4.82
2023-04-17T14:18:57.902Z,4.82
2023-04-17T14:21:30.925Z,5.00
2023-04-17T14:23:59.267Z,4.20
2023-04-17T14:26:27.619Z,5.18
2023-04-17T14:28:55.895Z,4.93
2023-04-17T14:31:24.306Z,4.90
2023-04-17T14:33:52.645Z,4.75
2023-04-17T14:36:20.976Z,4.32
2023-04-17T14:38:51.356Z,5.10
2023-04-17T14:41:19.932Z,4.93
2023-04-17T14:43:48.213Z,4.45
2023-04-17T14:46:16.710Z,4.30
2023-04-17T14:48:54.902Z,4.05
2023-04-17T14:51:24.156Z,3.97
2023-04-17T14:53:54.052Z,4.43
2023-04-17T14:56:22.710Z,4.80
2023-04-17T14:58:51.084Z,5.05
2023-04-17T15:01:19.428Z,5.07
2023-04-17T15:03:48.835Z,4.82
2023-04-17T15:06:18.716Z,5.38
2023-04-17T15:08:47.257Z,5.97
2023-04-17T15:11:17.229Z,6.63
2023-04-17T15:13:45.506Z,5.65
2023-04-17T15:16:13.996Z,5.97
2023-04-17T15:18:42.255Z,6.25
2023-04-17T15:21:10.846Z,5.45
2023-04-17T15:23:39.330Z,6.30
2023-04-17T15:26:07.622Z,7.43
2023-04-17T15:28:37.657Z,6.82
2023-04-17T15:31:05.995Z,6.78
2023-04-17T15:33:34.332Z,6.97
2023-04-17T15:36:02.831Z,7.68
2023-04-17T15:38:31.124Z,7.75
2023-04-17T15:40:59.432Z,7.20
2023-04-17T15:43:28.135Z,8.87
2023-04-17T15:45:59.111Z,8.93
2023-04-17T15:48:27.612Z,9.00
2023-04-17T15:50:55.984Z,9.50
2023-04-17T15:53:24.043Z,8.27
2023-04-17T15:55:53.692Z,9.40
2023-04-17T15:58:21.708Z,8.55
2023-04-17T16:00:49.767Z,8.43
2023-04-17T16:03:19.284Z,9.55
2023-04-17T16:05:47.386Z,9.05
2023-04-17T16:08:15.395Z,9.43
2023-04-17T16:10:43.409Z,10.20
2023-04-17T16:13:11.426Z,9.60
2023-04-17T16:15:39.499Z,10.52
2023-04-17T16:18:08.014Z,10.05
2023-04-17T16:20:39.069Z,9.75
2023-04-17T16:23:07.187Z,10.57
2023-04-17T16:25:35.202Z,10.82
2023-04-17T16:28:03.360Z,10.68
2023-04-17T16:30:33.530Z,10.10
2023-04-17T16:36:45.376Z,10.50
2023-04-17T16:39:13.934Z,10.18
2023-04-17T16:41:42.341Z,10.93
2023-04-17T16:44:10.479Z,11.20
2023-04-17T16:49:11.498Z,11.05
2023-04-17T16:51:39.816Z,11.15
2023-04-17T16:54:09.232Z,12.52
2023-04-17T16:56:37.271Z,11.88
2023-04-17T16:59:05.671Z,11.88
2023-04-17T17:01:33.811Z,11.38
2023-04-17T17:04:02.048Z,11.32
2023-04-17T17:06:30.221Z,11.15
2023-04-17T17:08:59.707Z,12.13
2023-04-17T17:11:29.113Z,12.20
2023-04-17T17:13:57.832Z,12.82
2023-04-17T17:16:26.266Z,13.00
2023-04-17T17:18:54.400Z,13.25
2023-04-17T17:21:22.421Z,11.75
2023-04-17T17:23:50.463Z,12.32
2023-04-17T17:26:18.469Z,12.48
2023-04-17T17:28:51.354Z,11.40
2023-04-17T17:31:19.732Z,11.30
2023-04-17T17:33:50.034Z,11.35
2023-04-17T17:36:18.563Z,10.85
2023-04-17T17:38:46.824Z,10.85
2023-04-17T17:41:14.923Z,10.55
2023-04-17T17:43:43.114Z,9.98
2023-04-17T17:46:12.602Z,10.18
2023-04-17T17:48:41.127Z,9.73
2023-04-17T17:51:09.435Z,8.55
2023-04-17T17:53:37.495Z,8.85
2023-04-17T17:56:06.077Z,8.48
2023-04-17T17:58:34.164Z,8.07
2023-04-17T18:01:02.616Z,8.38
2023-04-17T18:03:34.243Z,8.23
2023-04-17T18:06:02.475Z,8.23
2023-04-17T18:08:35.909Z,7.07
2023-04-17T18:11:03.985Z,7.95
2023-04-17T18:13:32.587Z,8.32
2023-04-17T18:16:03.868Z,7.93
2023-04-17T18:18:33.421Z,8.93
2023-04-17T18:21:01.485Z,7.70
2023-04-17T18:23:29.569Z,8.00
2023-04-17T18:25:58.855Z,7.63
2023-04-17T18:28:27.060Z,8.13
2023-04-17T18:30:55.465Z,7.68
2023-04-17T18:33:23.645Z,8.45
2023-04-17T18:35:53.079Z,7.88
2023-04-17T18:38:21.386Z,8.48
2023-04-17T18:40:53.920Z,7.63
2023-04-17T18:43:21.969Z,7.72
2023-04-17T18:45:50.065Z,8.23
2023-04-17T18:48:18.151Z,7.97
2023-04-17T18:50:46.230Z,7.78
2023-04-17T18:53:15.683Z,8.30
2023-04-17T18:55:43.694Z,8.60
2023-04-17T18:58:11.754Z,7.93
2023-04-17T19:00:39.789Z,8.00
2023-04-17T19:03:07.933Z,7.57
2023-04-17T19:05:36.151Z,8.95
2023-04-17T19:08:04.304Z,8.48
2023-04-17T19:10:33.778Z,8.30
2023-04-17T19:13:01.770Z,8.57
2023-04-17T19:15:29.844Z,7.63
2023-04-17T19:17:57.953Z,8.80
2023-04-17T19:20:26.040Z,8.40
2023-04-17T19:22:54.397Z,8.18
2023-04-17T19:25:22.417Z,8.20
2023-04-17T19:27:51.968Z,8.52
2023-04-17T19:30:20.073Z,8.52
2023-04-17T19:32:48.190Z,8.63
2023-04-17T19:35:16.260Z,7.82
2023-04-17T19:37:44.344Z,8.63
2023-04-17T19:40:24.260Z,8.73
2023-04-17T19:42:56.202Z,8.18
2023-04-17T19:45:24.269Z,8.40
2023-04-17T19:47:56.258Z,8.65
2023-04-17T19:50:25.297Z,8.65
2023-04-17T19:52:53.436Z,8.45
2023-04-17T19:55:21.834Z,9.02
2023-04-17T19:57:51.075Z,8.20
2023-04-17T20:00:21.121Z,8.52
2023-04-17T20:02:49.355Z,8.55
2023-04-17T20:05:18.474Z,8.38
2023-04-17T20:07:46.572Z,8.70
2023-04-17T20:10:14.751Z,8.20
2023-04-17T20:12:42.772Z,7.95
2023-04-17T20:15:11.824Z,8.57
2023-04-17T20:17:41.280Z,8.45
2023-04-17T20:20:10.294Z,8.68
2023-04-17T20:22:39.637Z,9.40
2023-04-17T20:25:08.274Z,9.10
2023-04-17T20:27:36.329Z,9.15
2023-04-17T20:30:04.728Z,8.82
2023-04-17T20:32:32.801Z,9.45
2023-04-17T20:35:02.906Z,8.95
2023-04-17T20:37:30.973Z,8.48
2023-04-17T20:39:58.999Z,9.07
2023-04-17T20:42:27.019Z,8.82
2023-04-17T20:44:55.320Z,9.00
2023-04-17T20:47:23.360Z,9.07
2023-04-17T20:49:53.018Z,9.18
2023-04-17T20:52:22.423Z,9.38
2023-04-17T20:54:50.440Z,9.60
2023-04-17T20:57:18.475Z,9.23
2023-04-17T20:59:46.813Z,9.35
2023-04-17T21:02:16.238Z,8.98
2023-04-17T21:04:45.190Z,8.70
2023-04-17T21:07:13.413Z,9.38
2023-04-17T21:09:42.955Z,9.70
2023-04-17T21:12:11.051Z,9.50
2023-04-17T21:14:40.062Z,9.38
2023-04-17T21:17:09.410Z,9.05
2023-04-17T21:19:37.787Z,9.25
2023-04-17T21:22:05.824Z,9.77
2023-04-17T21:24:34.340Z,8.43
2023-04-17T21:27:04.247Z,9.02
2023-04-17T21:29:32.338Z,9.38
2023-04-17T21:32:00.509Z,8.80
2023-04-17T21:34:28.682Z,9.55
2023-04-17T21:36:56.780Z,10.30
2023-04-17T21:39:24.829Z,9.38
2023-04-17T21:41:52.926Z,9.23
2023-04-17T21:44:22.330Z,9.90
2023-04-17T21:46:50.531Z,9.48
2023-04-17T21:49:18.630Z,9.55
2023-04-17T21:51:46.667Z,9.93
2023-04-17T21:54:14.876Z,9.77
2023-04-17T21:56:43.034Z,10.00
2023-04-17T21:59:11.070Z,9.45
2023-04-17T22:01:40.543Z,9.38
2023-04-17T22:04:08.747Z,9.20
2023-04-17T22:06:37.178Z,9.63
2023-04-17T22:09:05.276Z,9.85
2023-04-17T22:11:33.400Z,8.90
2023-04-17T22:14:01.473Z,9.90
2023-04-17T22:16:29.557Z,10.23
2023-04-17T22:18:59.027Z,10.15
2023-04-17T22:21:27.330Z,9.65
2023-04-17T22:23:55.425Z,9.82
2023-04-17T22:26:23.644Z,9.68
2023-04-17T22:28:51.685Z,9.57
2023-04-17T22:31:21.088Z,10.63
2023-04-17T22:33:49.193Z,10.75
2023-04-17T22:36:18.650Z,9.90
2023-04-17T22:38:46.751Z,9.35
2023-04-17T22:41:17.524Z,9.70
2023-04-17T22:43:49.046Z,9.82
2023-04-17T22:46:17.377Z,9.98
2023-04-17T22:48:45.675Z,9.60
2023-04-17T22:51:15.108Z,9.77
2023-04-17T22:53:44.630Z,9.50
2023-04-17T22:56:13.799Z,9.60
2023-04-17T22:58:42.016Z,10.18
2023-04-17T23:01:13.405Z,9.82
2023-04-17T23:03:41.732Z,9.45
2023-04-17T23:06:11.272Z,9.90
2023-04-17T23:08:39.379Z,10.15
2023-04-17T23:11:10.547Z,9.25
2023-04-17T23:13:38.666Z,10.18
2023-04-17T23:16:07.612Z,9.95
2023-04-17T23:18:37.160Z,9.40
2023-04-17T23:21:05.540Z,9.35
2023-04-17T23:23:33.630Z,9.80
2023-04-17T23:26:01.715Z,9.27
2023-04-17T23:28:31.467Z,8.98
2023-04-17T23:30:59.672Z,8.93
2023-04-17T23:33:27.841Z,8.73
2023-04-17T23:35:55.954Z,8.55
2023-04-17T23:38:24.145Z,8.60
2023-04-17T23:40:52.315Z,8.85
2023-04-17T23:43:20.410Z,8.13
2023-04-17T23:45:49.899Z,8.23
2023-04-17T23:48:17.985Z,8.55
2023-04-17T23:50:46.265Z,8.80
2023-04-17T23:53:14.547Z,8.95
2023-04-17T23:55:42.634Z,8.52
2023-04-17T23:58:10.729Z,8.27
